Arcola, Mississippi
Current Conditions -  °F | °C
As of 7:53 AM on Friday 31 Oct 2014 (Local Time) from KGLH Reporting Station
Clear Clear  
Wind Chill: 54°   Ceiling: Unl
Heat Index: 54°   Visibility: 8mi
Dew Point: 46°   Wind: 13mph
Humidity: 75%   Direction: 330°NNW
Pressure: 30.06"   Gusts: NA
Location:  33.27°N, 90.88°W
Report Text: KGLH 311253Z AUTO 33011KT 8SM CLR 12/08 A3006 RMK AO2 SLP186 T01220078
Loading
Personal Weather Stations






























Interactive Weather Map
Tropical Storm Tracking
New forecast layout! Learn more

10-Day Weather Forecast

Advertisements
Track Severe Weather on mobile